Aviation Digital Data Service (ADDS)

Output produced by METARs form (0811 UTC 01 October 2014)
found at http://aviationweather.gov/adds/metars/
 
KEWR 010809Z 0108/0212 02008KT P6SM OVC015 
     FM011800 02010KT P6SM SCT015 OVC050 
     FM020200 01008KT P6SM OVC012